Terminal Aerodrome Forecast
Issued by NWS

Home | Current Version | Previous Version | Text Only | Print | Product List | Glossary On
Versions: 1 2 3 4 5 6 7 8 9 10 11 12 13 14 15 16 17 18 19 20 21 22 23 24 25 26
000
FTUS43 KDVN 211700
TAFCID
TAF
KCID 211732Z 2118/2218 17014KT 5SM BR OVC015
     FM212200 15012KT 3SM -DZ BR OVC008
     FM220600 14012KT 3SM -RADZ BR OVC004
     FM221100 13012KT 2SM -RASN BR OVC004=

USA.gov is the U.S. government's official web portal to all federal, state and local government web resources and services.